Time;durP1;ratioP1;P1;durP2;ratioP2;P2;SDS_P1;SDS_P2;PMS_P1;PMS_P2;Temp;Humidity;BMP_temperature;BMP_pressure;BME280_temperature;BME280_humidity;BME280_pressure;Samples;Min_cycle;Max_cycle;Signal;HPM_P1;HPM_P2
2022/07/09 00:02:23;;;;;;;0.90;0.90;;;15.60;97.30;;;;;;4994580;28;20230;-82
2022/07/09 00:04:50;;;;;;;2.20;1.77;;;15.60;97.30;;;;;;4994529;28;20219;-82
2022/07/09 00:07:15;;;;;;;2.50;1.30;;;15.60;97.30;;;;;;4993396;28;20260;-82
2022/07/09 00:09:41;;;;;;;2.80;1.43;;;15.60;97.30;;;;;;4993109;28;20925;-82
2022/07/09 00:12:07;;;;;;;1.37;1.27;;;15.60;97.30;;;;;;4993682;28;20185;-81
2022/07/09 00:14:33;;;;;;;2.17;1.33;;;15.60;97.30;;;;;;4993253;28;20174;-82
2022/07/09 00:16:58;;;;;;;3.80;1.60;;;15.60;97.30;;;;;;4991723;28;20807;-82
2022/07/09 00:19:24;;;;;;;1.43;1.30;;;15.60;97.30;;;;;;4992108;28;20188;-82
2022/07/09 00:21:50;;;;;;;1.00;0.90;;;15.70;97.30;;;;;;4991882;28;20214;-82
2022/07/09 00:24:15;;;;;;;1.00;0.90;;;15.70;97.30;;;;;;4992344;28;20190;-82
2022/07/09 00:26:41;;;;;;;1.00;0.90;;;15.70;97.30;;;;;;4991565;28;20181;-83
2022/07/09 00:29:06;;;;;;;1.90;1.30;;;15.70;97.30;;;;;;4991722;28;20301;-82
2022/07/09 00:31:32;;;;;;;1.93;1.83;;;15.70;97.30;;;;;;4992982;28;20185;-83
2022/07/09 00:33:57;;;;;;;1.10;1.00;;;15.70;97.30;;;;;;4991562;28;20178;-83
2022/07/09 00:36:23;;;;;;;1.20;1.10;;;15.70;97.30;;;;;;4991329;28;20205;-83
2022/07/09 00:38:48;;;;;;;1.00;0.90;;;15.70;97.30;;;;;;4991365;28;20545;-83
2022/07/09 00:41:14;;;;;;;2.47;1.60;;;15.70;97.30;;;;;;4991159;28;20213;-83
2022/07/09 00:43:49;;;;;;;1.20;1.10;;;15.70;97.30;;;;;;4991341;28;20228;-83
2022/07/09 00:46:16;;;;;;;1.30;1.20;;;15.70;97.30;;;;;;4980178;28;20239;-83
2022/07/09 00:48:42;;;;;;;1.03;0.97;;;15.70;97.30;;;;;;4990804;28;20487;-82
2022/07/09 00:51:08;;;;;;;1.77;1.70;;;15.70;97.30;;;;;;4990798;28;20439;-83
2022/07/09 00:53:35;;;;;;;1.00;0.90;;;15.70;97.30;;;;;;4991405;28;20173;-82
2022/07/09 00:56:02;;;;;;;1.47;1.37;;;15.70;97.30;;;;;;4991620;28;20471;-82
2022/07/09 00:58:28;;;;;;;2.30;1.13;;;15.70;97.30;;;;;;4991167;28;20875;-83
2022/07/09 01:00:55;;;;;;;1.37;1.27;;;15.70;97.30;;;;;;4991377;28;20508;-82
2022/07/09 01:03:23;;;;;;;0.70;0.70;;;15.70;97.30;;;;;;4996989;28;20235;-82
2022/07/09 01:05:56;;;;;;;1.40;1.13;;;15.70;97.30;;;;;;5012078;28;20789;-83
2022/07/09 01:08:25;;;;;;;2.40;1.33;;;15.70;97.30;;;;;;4994131;28;20476;-83
2022/07/09 01:10:54;;;;;;;0.90;0.90;;;15.70;97.30;;;;;;4994000;28;20531;-82
2022/07/09 01:13:25;;;;;;;1.87;1.33;;;15.70;97.30;;;;;;4994338;28;20764;-82
2022/07/09 01:15:54;;;;;;;2.33;1.40;;;15.70;97.30;;;;;;5012108;28;20427;-83
2022/07/09 01:18:24;;;;;;;1.77;1.50;;;15.70;97.30;;;;;;4994020;28;20436;-83
2022/07/09 01:20:56;;;;;;;0.90;0.90;;;15.70;97.30;;;;;;4993722;28;20450;-82
2022/07/09 01:23:26;;;;;;;1.10;1.00;;;15.80;97.30;;;;;;4994002;28;20562;-83
2022/07/09 01:25:55;;;;;;;2.70;1.40;;;15.80;97.30;;;;;;4994402;28;20535;-82
2022/07/09 01:28:25;;;;;;;1.10;1.00;;;15.70;97.30;;;;;;4994037;28;20467;-83
2022/07/09 01:30:54;;;;;;;1.10;1.00;;;15.80;97.30;;;;;;5011050;28;21013;-83
2022/07/09 01:33:19;;;;;;;1.33;1.23;;;15.80;97.30;;;;;;4993913;28;20506;-83
2022/07/09 01:35:45;;;;;;;1.43;1.33;;;15.80;97.30;;;;;;4993582;28;20416;-83
2022/07/09 01:38:11;;;;;;;1.17;1.07;;;15.80;97.30;;;;;;4994245;28;20200;-83
2022/07/09 01:40:36;;;;;;;1.73;1.00;;;15.80;97.30;;;;;;4993815;28;20220;-83
2022/07/09 01:43:02;;;;;;;1.03;1.00;;;15.70;97.30;;;;;;4993643;28;20199;-83
2022/07/09 01:45:28;;;;;;;17.97;1.80;;;15.70;97.30;;;;;;4993721;28;20244;-83
2022/07/09 01:47:53;;;;;;;1.77;1.67;;;15.70;97.30;;;;;;4994066;28;20209;-83
2022/07/09 01:50:19;;;;;;;0.93;0.90;;;15.70;97.30;;;;;;4993617;28;20231;-83
2022/07/09 01:52:45;;;;;;;1.00;0.90;;;15.70;97.30;;;;;;4990379;28;20178;-83
2022/07/09 01:55:10;;;;;;;1.00;0.90;;;15.70;97.30;;;;;;4986777;28;20669;-83
2022/07/09 01:57:36;;;;;;;1.40;1.30;;;15.70;97.30;;;;;;4980760;28;20216;-83
2022/07/09 02:00:04;;;;;;;1.30;0.97;;;15.70;97.30;;;;;;4993147;28;20243;-83
2022/07/09 02:02:29;;;;;;;1.00;0.90;;;15.70;97.30;;;;;;4981197;28;20232;-83
2022/07/09 02:04:55;;;;;;;1.10;1.00;;;15.70;97.30;;;;;;5010732;28;20423;-83
2022/07/09 02:07:20;;;;;;;1.17;0.93;;;15.70;97.30;;;;;;4993072;28;20201;-83
2022/07/09 02:09:46;;;;;;;1.20;1.10;;;15.70;97.30;;;;;;5010952;28;20192;-83
2022/07/09 02:12:11;;;;;;;1.10;1.00;;;15.60;97.30;;;;;;4993326;28;20178;-83
2022/07/09 02:14:37;;;;;;;0.90;0.80;;;15.60;97.30;;;;;;4992461;28;20185;-83
2022/07/09 02:17:03;;;;;;;3.27;1.23;;;15.60;97.30;;;;;;4992960;28;20181;-83
2022/07/09 02:19:29;;;;;;;1.90;1.37;;;15.60;97.30;;;;;;4992790;28;20548;-83
2022/07/09 02:21:54;;;;;;;1.20;1.00;;;15.60;97.30;;;;;;5010658;28;20181;-83
2022/07/09 02:24:20;;;;;;;1.23;1.20;;;15.60;97.30;;;;;;4993398;28;20174;-83
2022/07/09 02:26:45;;;;;;;1.40;1.23;;;15.50;97.30;;;;;;4992605;28;20268;-83
2022/07/09 02:29:11;;;;;;;1.57;1.47;;;15.50;97.30;;;;;;4993073;28;20300;-83
2022/07/09 02:31:37;;;;;;;0.83;0.80;;;15.50;97.30;;;;;;5010946;28;20647;-83
2022/07/09 02:34:02;;;;;;;1.00;0.90;;;15.50;97.30;;;;;;4996411;28;20185;-83
2022/07/09 02:36:28;;;;;;;2.07;1.20;;;15.50;97.30;;;;;;4996876;28;20177;-83
2022/07/09 02:38:53;;;;;;;1.40;1.30;;;15.50;97.30;;;;;;4996898;28;20199;-83
2022/07/09 02:41:19;;;;;;;1.40;1.30;;;15.50;97.30;;;;;;4997013;28;20177;-83
2022/07/09 02:43:45;;;;;;;1.67;1.57;;;15.40;97.30;;;;;;5014735;28;20181;-83
2022/07/09 02:46:11;;;;;;;1.17;1.10;;;15.40;97.30;;;;;;4996723;28;20547;-83
2022/07/09 02:48:37;;;;;;;1.10;1.00;;;15.40;97.30;;;;;;4996871;28;20219;-83
2022/07/09 02:51:03;;;;;;;0.80;0.80;;;15.40;97.30;;;;;;4996811;28;20185;-83
2022/07/09 02:53:29;;;;;;;1.00;0.90;;;15.30;97.30;;;;;;4996678;28;20799;-83
2022/07/09 02:55:55;;;;;;;0.80;0.80;;;15.30;97.30;;;;;;4996643;28;20408;-83
2022/07/09 02:58:20;;;;;;;1.00;0.90;;;15.30;97.30;;;;;;4996230;28;20435;-83
2022/07/09 03:00:46;;;;;;;1.40;1.30;;;15.30;97.30;;;;;;4994460;28;20200;-83
2022/07/09 03:03:11;;;;;;;1.47;1.10;;;15.30;97.30;;;;;;4996134;28;20480;-83
2022/07/09 03:05:37;;;;;;;1.50;1.40;;;15.30;97.30;;;;;;4994363;28;20185;-84
2022/07/09 03:08:03;;;;;;;1.33;1.20;;;15.30;97.30;;;;;;4996280;28;20504;-83
2022/07/09 03:10:29;;;;;;;1.10;1.00;;;15.30;97.30;;;;;;4996382;28;20193;-83
2022/07/09 03:12:54;;;;;;;1.47;1.37;;;15.20;97.30;;;;;;4995925;28;20173;-83
2022/07/09 03:15:20;;;;;;;1.40;1.20;;;15.20;97.30;;;;;;4995786;28;20185;-83
2022/07/09 03:17:47;;;;;;;0.90;0.90;;;15.20;97.30;;;;;;4996318;28;20260;-83
2022/07/09 03:20:13;;;;;;;1.47;1.37;;;15.20;97.30;;;;;;4996324;28;20187;-83
2022/07/09 03:22:39;;;;;;;1.53;0.97;;;15.20;97.30;;;;;;4996129;28;20420;-83
2022/07/09 03:25:06;;;;;;;1.33;1.30;;;15.20;97.30;;;;;;4995874;28;20515;-83
2022/07/09 03:27:32;;;;;;;1.20;1.10;;;15.20;97.30;;;;;;4996541;28;20467;-82
2022/07/09 03:29:58;;;;;;;1.00;0.90;;;15.20;97.30;;;;;;4996173;28;20412;-83
2022/07/09 03:32:24;;;;;;;1.30;1.20;;;15.20;97.30;;;;;;4996525;28;20945;-83
2022/07/09 03:34:49;;;;;;;0.90;0.83;;;15.20;97.30;;;;;;4996286;28;20192;-83
2022/07/09 03:37:15;;;;;;;1.00;0.90;;;15.20;97.30;;;;;;4996508;28;20462;-83
2022/07/09 03:39:41;;;;;;;1.13;1.03;;;15.20;97.30;;;;;;4996082;28;20170;-83
2022/07/09 03:42:06;;;;;;;1.37;1.20;;;15.20;97.30;;;;;;4995749;28;20552;-83
2022/07/09 03:44:35;;;;;;;1.10;1.00;;;15.30;97.30;;;;;;4995095;28;20583;-83
2022/07/09 03:47:05;;;;;;;1.47;1.10;;;15.30;97.30;;;;;;4995395;28;20211;-83
2022/07/09 03:49:34;;;;;;;1.20;1.10;;;15.30;97.30;;;;;;4995165;28;20428;-83
2022/07/09 03:52:04;;;;;;;1.17;1.10;;;15.30;97.30;;;;;;4996256;28;20470;-83
2022/07/09 03:54:35;;;;;;;1.00;0.90;;;15.30;97.30;;;;;;5000361;28;20554;-83
2022/07/09 03:57:05;;;;;;;1.23;1.20;;;15.30;97.30;;;;;;4994989;28;20416;-83
2022/07/09 03:59:33;;;;;;;1.60;1.40;;;15.30;97.30;;;;;;4995639;28;20990;-83
2022/07/09 04:02:06;;;;;;;2.07;1.93;;;15.30;97.30;;;;;;4995090;28;20470;-83
2022/07/09 04:04:34;;;;;;;1.20;1.10;;;15.40;97.30;;;;;;4995703;28;20941;-83
2022/07/09 04:07:06;;;;;;;1.20;1.10;;;15.40;97.30;;;;;;4992755;28;20483;-83
2022/07/09 04:09:33;;;;;;;1.33;1.30;;;15.40;97.30;;;;;;4995114;28;21079;-83
2022/07/09 04:12:06;;;;;;;1.03;0.97;;;15.50;97.30;;;;;;5012728;28;20418;-83
2022/07/09 04:14:33;;;;;;;1.00;0.90;;;15.50;97.30;;;;;;4997886;28;20420;-83
2022/07/09 04:17:00;;;;;;;1.20;1.17;;;15.50;97.30;;;;;;5006018;28;20419;-83
2022/07/09 04:19:26;;;;;;;2.30;1.37;;;15.50;97.30;;;;;;5005647;28;20447;-83
2022/07/09 04:21:52;;;;;;;1.17;1.10;;;15.50;97.30;;;;;;5005326;28;20957;-83
2022/07/09 04:24:17;;;;;;;2.00;1.20;;;15.50;97.30;;;;;;5004975;28;20919;-83
2022/07/09 04:26:43;;;;;;;1.40;1.30;;;15.50;97.30;;;;;;5004650;28;20189;-83
2022/07/09 04:29:14;;;;;;;1.37;1.27;;;15.60;97.30;;;;;;5003897;28;20437;-82
2022/07/09 04:31:39;;;;;;;1.27;1.00;;;15.60;97.30;;;;;;5004858;28;20412;-84
2022/07/09 04:34:05;;;;;;;1.63;1.13;;;15.60;97.30;;;;;;5005259;28;20428;-82
2022/07/09 04:36:33;;;;;;;1.20;1.10;;;15.70;97.30;;;;;;5005979;28;20188;-82
2022/07/09 04:38:59;;;;;;;1.00;0.90;;;15.70;97.30;;;;;;5007025;28;20516;-82
2022/07/09 04:41:25;;;;;;;2.23;1.30;;;15.70;97.30;;;;;;5004629;28;20422;-82
2022/07/09 04:43:52;;;;;;;1.60;1.37;;;15.80;97.30;;;;;;5004964;28;20499;-82
2022/07/09 04:46:19;;;;;;;1.07;0.97;;;15.80;97.30;;;;;;5005282;28;20188;-82
2022/07/09 04:48:44;;;;;;;1.90;1.80;;;15.80;97.30;;;;;;5005543;28;20467;-84
2022/07/09 04:51:11;;;;;;;1.63;1.53;;;15.90;97.30;;;;;;5006036;28;20431;-83
2022/07/09 04:53:36;;;;;;;2.10;1.10;;;15.90;97.30;;;;;;5005512;28;20181;-83
2022/07/09 04:56:03;;;;;;;1.67;1.20;;;15.90;97.30;;;;;;5004752;28;20431;-83
2022/07/09 04:58:30;;;;;;;1.23;1.13;;;16.00;97.30;;;;;;5005098;28;20201;-83
2022/07/09 05:00:55;;;;;;;3.60;1.43;;;16.00;97.30;;;;;;5005038;28;20431;-83
2022/07/09 05:03:24;;;;;;;1.33;1.23;;;16.00;97.30;;;;;;5004553;28;20468;-84
2022/07/09 05:05:52;;;;;;;1.00;1.00;;;16.00;97.30;;;;;;5004246;28;20190;-84
2022/07/09 05:08:18;;;;;;;0.90;0.87;;;16.00;97.30;;;;;;5004128;28;20487;-85
2022/07/09 05:10:44;;;;;;;1.10;1.00;;;16.00;97.30;;;;;;5005268;28;20837;-83
2022/07/09 05:13:10;;;;;;;1.07;0.97;;;16.00;97.30;;;;;;5005014;28;20431;-82
2022/07/09 05:15:35;;;;;;;0.80;0.80;;;16.00;97.30;;;;;;5005229;28;20251;-83
2022/07/09 05:18:01;;;;;;;1.87;1.60;;;16.00;97.30;;;;;;5005152;28;20570;-82
2022/07/09 05:20:27;;;;;;;1.50;1.40;;;16.00;97.30;;;;;;5005429;28;20209;-82
2022/07/09 05:22:53;;;;;;;1.20;1.10;;;16.00;97.30;;;;;;5004433;28;20424;-84
2022/07/09 05:25:19;;;;;;;1.00;0.90;;;16.00;97.30;;;;;;5023431;28;20181;-82
2022/07/09 05:27:46;;;;;;;1.97;1.90;;;16.00;97.30;;;;;;5004316;28;20216;-82
2022/07/09 05:30:14;;;;;;;1.57;1.47;;;16.00;97.30;;;;;;5001458;28;20428;-82
2022/07/09 05:32:43;;;;;;;1.50;1.20;;;16.10;97.30;;;;;;5004264;28;20921;-83
2022/07/09 05:35:12;;;;;;;1.23;1.20;;;16.10;97.30;;;;;;5004994;28;20438;-84
2022/07/09 05:37:43;;;;;;;1.10;1.00;;;16.20;97.30;;;;;;5022147;28;20444;-82
2022/07/09 05:40:12;;;;;;;1.33;1.23;;;16.20;97.30;;;;;;5004950;28;20463;-82
2022/07/09 05:42:39;;;;;;;1.53;1.30;;;16.20;97.30;;;;;;4992842;28;20424;-83
2022/07/09 05:45:05;;;;;;;1.97;1.87;;;16.20;97.30;;;;;;5003903;28;20424;-81
2022/07/09 05:47:31;;;;;;;1.90;1.10;;;16.20;97.30;;;;;;5003716;28;20483;-84
2022/07/09 05:50:06;;;;;;;1.17;1.10;;;16.30;97.30;;;;;;5003371;28;20416;-82
2022/07/09 05:52:35;;;;;;;4.03;3.83;;;16.30;97.30;;;;;;5003553;28;20615;-82
2022/07/09 05:55:05;;;;;;;1.83;1.00;;;16.30;97.30;;;;;;5003230;28;20424;-83
2022/07/09 05:57:37;;;;;;;1.10;0.90;;;16.30;97.30;;;;;;4993388;28;20604;-82
2022/07/09 06:00:05;;;;;;;3.27;1.40;;;16.30;97.30;;;;;;4975300;28;21021;-82
2022/07/09 06:02:35;;;;;;;1.23;1.17;;;16.30;97.30;;;;;;4990997;28;20511;-81
2022/07/09 06:05:04;;;;;;;1.50;1.40;;;16.30;97.30;;;;;;4986272;28;20939;-82
2022/07/09 06:07:38;;;;;;;0.93;0.87;;;16.30;97.30;;;;;;4982419;28;20503;-82
2022/07/09 06:10:05;;;;;;;1.60;1.50;;;16.30;97.30;;;;;;4993444;28;20854;-82
2022/07/09 06:12:44;;;;;;;1.40;1.23;;;16.30;97.30;;;;;;4994831;28;20968;-82
2022/07/09 06:15:14;;;;;;;5.70;1.70;;;16.30;97.30;;;;;;4994318;28;20408;-82
2022/07/09 06:17:44;;;;;;;1.23;1.13;;;16.30;97.30;;;;;;4994923;28;20479;-82
2022/07/09 06:20:25;;;;;;;2.73;1.63;;;16.30;97.30;;;;;;4994522;28;20510;-82
2022/07/09 06:23:14;;;;;;;1.20;1.10;;;16.40;97.30;;;;;;4994589;28;20419;-82
2022/07/09 06:25:43;;;;;;;1.10;1.00;;;16.40;97.30;;;;;;4994168;28;20420;-82
2022/07/09 06:29:05;;;;;;;1.40;1.30;;;16.40;97.30;;;;;;4993950;28;20537;-83
2022/07/09 06:31:35;;;;;;;1.33;1.23;;;16.40;97.30;;;;;;4910841;28;20421;-82
2022/07/09 06:34:16;;;;;;;11.20;2.60;;;16.50;97.30;;;;;;4975213;28;20467;-82
2022/07/09 06:36:45;;;;;;;1.20;1.10;;;16.50;97.30;;;;;;4975529;28;20417;-81
2022/07/09 06:39:45;;;;;;;1.20;1.10;;;16.50;97.30;;;;;;4975970;28;20433;-82
2022/07/09 06:42:26;;;;;;;1.20;1.10;;;16.40;97.30;;;;;;4994318;28;20417;-82
2022/07/09 06:45:15;;;;;;;1.30;1.10;;;16.50;97.30;;;;;;4994209;28;20793;-82
2022/07/09 06:47:44;;;;;;;1.37;1.30;;;16.50;97.30;;;;;;4981503;28;20519;-81
2022/07/09 06:50:46;;;;;;;1.00;0.90;;;16.50;97.30;;;;;;4994432;28;20416;-82
2022/07/09 06:53:15;;;;;;;2.70;1.07;;;16.50;97.30;;;;;;4974892;28;20412;-82
2022/07/09 06:56:34;;;;;;;11.93;1.50;;;16.50;97.30;;;;;;4991167;28;20408;-83
2022/07/09 06:59:26;;;;;;;1.20;1.10;;;16.50;97.30;;;;;;4980490;28;20432;-81
2022/07/09 07:01:55;;;;;;;1.63;0.97;;;16.50;97.30;;;;;;4986868;28;20474;-82
2022/07/09 07:05:07;;;;;;;;;;;;;;;;;;;;;
2022/07/09 07:07:34;;;;;;;1.83;1.30;;;16.60;97.30;;;;;;5000453;28;20476;-82
2022/07/09 07:10:45;;;;;;;1.17;1.03;;;16.60;97.30;;;;;;4994495;28;20691;-82
2022/07/09 07:13:15;;;;;;;1.30;1.20;;;16.60;97.30;;;;;;4993918;28;20431;-82
2022/07/09 07:15:49;;;;;;;2.37;1.60;;;16.70;97.30;;;;;;4993956;28;20412;-82
2022/07/09 07:18:16;;;;;;;3.23;1.37;;;16.70;97.30;;;;;;5012620;28;20521;-82
2022/07/09 07:20:45;;;;;;;1.10;1.00;;;16.70;97.30;;;;;;4997645;28;20419;-82
2022/07/09 07:23:15;;;;;;;1.40;1.30;;;16.80;97.30;;;;;;4997069;28;20450;-82
2022/07/09 07:25:45;;;;;;;2.67;1.93;;;16.80;97.30;;;;;;4996333;28;20420;-83
2022/07/09 07:31:14;;;;;;;2.70;1.43;;;16.90;97.30;;;;;;4999586;28;20783;-82
2022/07/09 07:33:46;;;;;;;3.63;2.03;;;17.00;97.30;;;;;;4996836;28;20416;-82
2022/07/09 07:36:14;;;;;;;1.63;1.23;;;17.00;97.30;;;;;;4996905;28;20836;-82
2022/07/09 07:38:57;;;;;;;;;;;;;;;;;;;;;
2022/07/09 07:41:26;;;;;;;1.23;1.13;;;17.10;97.30;;;;;;5014387;28;20428;-82
2022/07/09 07:43:55;;;;;;;1.83;1.43;;;17.10;97.30;;;;;;4997313;28;20431;-82
2022/07/09 07:46:25;;;;;;;2.07;1.40;;;17.10;97.30;;;;;;4997392;28;20438;-82
2022/07/09 07:49:06;;;;;;;1.27;1.13;;;17.10;97.30;;;;;;5010340;28;20883;-82
2022/07/09 07:51:35;;;;;;;2.90;2.70;;;17.10;97.30;;;;;;4996475;28;20407;-82
2022/07/09 07:54:04;;;;;;;2.03;1.90;;;17.10;97.30;;;;;;4997278;28;20427;-81
2022/07/09 07:56:45;;;;;;;1.07;0.90;;;17.20;97.30;;;;;;4996393;28;20416;-82
2022/07/09 07:59:32;;;;;;;2.40;1.70;;;17.20;97.30;;;;;;4996761;28;20992;-82
2022/07/09 08:02:05;;;;;;;1.33;1.23;;;17.30;97.30;;;;;;4996696;28;20499;-82
2022/07/09 08:04:34;;;;;;;1.63;1.03;;;17.30;97.30;;;;;;4997147;28;20491;-82
2022/07/09 08:07:15;;;;;;;1.57;1.10;;;17.40;97.30;;;;;;4996495;28;20789;-82
2022/07/09 08:09:45;;;;;;;1.23;1.07;;;17.50;97.30;;;;;;4997190;28;20408;-82
2022/07/09 08:12:15;;;;;;;1.20;1.10;;;17.60;97.30;;;;;;4996242;28;20761;-82
2022/07/09 08:14:57;;;;;;;1.10;1.00;;;17.60;97.30;;;;;;4996306;28;20460;-82
2022/07/09 08:17:24;;;;;;;1.73;1.53;;;17.70;97.30;;;;;;4995730;28;20547;-82
2022/07/09 08:19:56;;;;;;;1.93;1.63;;;17.80;97.30;;;;;;4993793;28;20871;-82
2022/07/09 08:22:25;;;;;;;1.70;1.60;;;17.90;97.30;;;;;;4977284;28;20821;-82
2022/07/09 08:24:55;;;;;;;2.63;1.73;;;18.00;97.30;;;;;;4977152;28;20439;-82
2022/07/09 08:27:36;;;;;;;1.40;1.30;;;18.00;97.30;;;;;;4988039;28;20480;-82
2022/07/09 08:30:12;;;;;;;1.80;1.70;;;18.00;97.30;;;;;;4995743;28;20553;-82
2022/07/09 08:32:44;;;;;;;2.20;1.87;;;18.00;97.30;;;;;;4996812;28;20436;-82
2022/07/09 08:35:25;;;;;;;1.57;1.30;;;18.00;97.30;;;;;;4996556;28;20910;-82
2022/07/09 08:38:06;;;;;;;;;;;;;;;;;;;;;
2022/07/09 08:40:36;;;;;;;7.40;2.20;;;18.00;97.30;;;;;;5006885;28;20948;-81
2022/07/09 08:43:06;;;;;;;1.53;1.50;;;18.00;97.30;;;;;;4996271;28;20432;-82
2022/07/09 08:45:31;;;;;;;1.27;1.10;;;18.00;97.30;;;;;;5013630;28;20864;-82
2022/07/09 08:48:00;;;;;;;2.43;1.00;;;18.10;97.30;;;;;;4996293;28;20475;-82
2022/07/09 08:50:26;;;;;;;2.30;2.10;;;18.00;97.30;;;;;;4996358;28;20177;-81
2022/07/09 08:52:55;;;;;;;1.40;1.27;;;18.00;97.30;;;;;;5014418;28;20844;-81
2022/07/09 08:55:21;;;;;;;2.80;1.63;;;18.00;97.30;;;;;;4996211;28;21043;-82
2022/07/09 08:57:47;;;;;;;1.97;1.30;;;17.90;97.30;;;;;;4995864;28;20448;-82
2022/07/09 09:00:12;;;;;;;1.93;1.10;;;18.00;97.30;;;;;;4996495;28;20473;-82
2022/07/09 09:02:38;;;;;;;1.07;1.00;;;18.00;97.30;;;;;;4987404;28;20240;-82
2022/07/09 09:05:17;;;;;;;5.53;1.27;;;18.00;97.30;;;;;;4991209;28;20200;-82
2022/07/09 09:07:43;;;;;;;1.10;1.00;;;18.00;97.30;;;;;;4996272;28;20220;-82
2022/07/09 09:10:23;;;;;;;1.93;1.30;;;18.10;97.30;;;;;;4996249;28;20427;-81
2022/07/09 09:12:55;;;;;;;1.93;1.23;;;18.10;97.30;;;;;;4995882;28;20188;-82
2022/07/09 09:15:21;;;;;;;1.53;1.40;;;18.20;97.30;;;;;;5025087;28;20439;-82
2022/07/09 09:17:46;;;;;;;2.60;1.63;;;18.20;97.30;;;;;;5011995;28;20938;-82
2022/07/09 09:20:13;;;;;;;1.80;1.70;;;18.20;97.30;;;;;;5012380;28;20595;-82
2022/07/09 09:22:51;;;;;;;1.30;1.20;;;18.20;97.30;;;;;;5012403;28;20215;-81
2022/07/09 09:25:21;;;;;;;1.00;0.90;;;18.30;97.30;;;;;;5011844;28;20469;-82
2022/07/09 09:27:54;;;;;;;2.60;1.97;;;18.40;97.30;;;;;;5011396;28;20965;-82
2022/07/09 09:30:20;;;;;;;15.33;2.03;;;18.40;97.30;;;;;;5012408;28;20420;-82
2022/07/09 09:33:01;;;;;;;1.87;1.80;;;18.50;97.30;;;;;;5011558;28;20431;-82
2022/07/09 09:35:28;;;;;;;1.30;1.20;;;18.60;97.30;;;;;;5002691;28;20949;-82
2022/07/09 09:37:55;;;;;;;1.33;1.10;;;18.70;97.30;;;;;;4995246;28;20443;-81
2022/07/09 09:40:21;;;;;;;1.30;1.20;;;18.80;97.30;;;;;;4994093;28;20802;-82
2022/07/09 09:42:48;;;;;;;1.40;1.00;;;18.90;97.30;;;;;;4994202;28;20428;-82
2022/07/09 09:45:15;;;;;;;1.80;1.70;;;19.10;97.30;;;;;;4994349;28;20193;-82
2022/07/09 09:47:47;;;;;;;1.30;1.10;;;19.20;97.30;;;;;;4993885;28;20463;-81
2022/07/09 09:50:17;;;;;;;1.10;0.93;;;19.40;97.30;;;;;;4994736;28;20420;-82
2022/07/09 09:52:45;;;;;;;2.47;1.73;;;19.40;97.30;;;;;;4994954;28;20448;-81
2022/07/09 09:55:12;;;;;;;1.10;1.00;;;19.50;97.30;;;;;;4995475;28;20448;-82
2022/07/09 09:57:39;;;;;;;1.00;0.90;;;19.50;97.30;;;;;;4994758;28;20481;-81
2022/07/09 10:00:06;;;;;;;2.40;2.30;;;19.50;97.30;;;;;;4993721;28;20938;-82
2022/07/09 10:02:32;;;;;;;2.20;1.17;;;19.60;97.30;;;;;;4994155;28;20463;-81
2022/07/09 10:04:59;;;;;;;1.10;1.10;;;19.70;97.30;;;;;;4994987;28;20585;-82
2022/07/09 10:07:25;;;;;;;1.00;0.90;;;19.80;97.30;;;;;;4993677;28;20559;-82
2022/07/09 10:09:58;;;;;;;1.00;1.00;;;20.00;97.30;;;;;;5009118;28;20535;-82
2022/07/09 10:12:32;;;;;;;1.10;1.00;;;20.10;97.30;;;;;;4974950;28;20462;-81
2022/07/09 10:14:58;;;;;;;1.53;0.90;;;20.20;97.30;;;;;;4991961;28;20423;-82
2022/07/09 10:17:25;;;;;;;1.10;1.00;;;20.20;96.70;;;;;;4993207;28;20467;-82
2022/07/09 10:20:07;;;;;;;1.00;1.00;;;20.20;96.60;;;;;;4993844;28;20455;-82
2022/07/09 10:22:47;;;;;;;2.97;1.20;;;20.20;96.40;;;;;;4993115;28;20489;-82
2022/07/09 10:25:58;;;;;;;1.37;1.20;;;20.20;96.50;;;;;;4993393;28;20423;-82
2022/07/09 10:28:28;;;;;;;1.87;1.77;;;20.20;96.10;;;;;;4912334;29;21064;-82
2022/07/09 10:31:26;;;;;;;0.90;0.80;;;20.10;96.50;;;;;;4909608;29;20459;-82
2022/07/09 10:34:25;;;;;;;1.17;1.10;;;20.20;96.70;;;;;;4914281;28;20758;-82
2022/07/09 10:37:06;;;;;;;1.03;0.90;;;20.20;97.00;;;;;;4971140;28;20485;-83
2022/07/09 10:40:04;;;;;;;0.90;0.87;;;20.30;96.90;;;;;;4995765;28;20945;-82
2022/07/09 10:42:36;;;;;;;1.40;1.30;;;20.20;96.20;;;;;;4993442;28;20404;-84
2022/07/09 10:45:25;;;;;;;1.30;1.20;;;20.10;96.50;;;;;;4994016;28;20435;-82
2022/07/09 10:47:55;;;;;;;0.80;0.77;;;19.90;96.50;;;;;;4997870;28;20853;-82
2022/07/09 10:50:37;;;;;;;1.13;1.03;;;19.90;97.10;;;;;;4993068;28;20447;-83
2022/07/09 10:53:05;;;;;;;2.10;1.43;;;19.80;97.30;;;;;;4993820;28;20879;-83
2022/07/09 10:55:37;;;;;;;1.03;1.00;;;19.80;97.10;;;;;;5014202;28;20919;-83
2022/07/09 10:58:07;;;;;;;1.93;1.20;;;19.70;97.30;;;;;;4989866;28;20527;-82
2022/07/09 11:00:36;;;;;;;1.10;1.03;;;19.60;97.30;;;;;;4991550;28;20457;-82
2022/07/09 11:03:06;;;;;;;2.00;1.87;;;19.60;97.30;;;;;;4996135;28;20566;-83
2022/07/09 11:05:47;;;;;;;1.20;1.17;;;19.60;97.30;;;;;;4996693;28;20428;-83
2022/07/09 11:08:20;;;;;;;1.20;1.00;;;19.60;97.30;;;;;;5012385;28;20541;-83
2022/07/09 11:10:45;;;;;;;1.40;1.30;;;19.70;97.30;;;;;;4987831;28;20461;-83
2022/07/09 11:13:11;;;;;;;1.70;1.57;;;19.70;97.30;;;;;;5015448;28;20420;-83
2022/07/09 11:15:38;;;;;;;1.00;0.90;;;19.80;97.30;;;;;;4997000;28;20192;-83
2022/07/09 11:18:15;;;;;;;1.00;0.90;;;19.80;97.30;;;;;;4996994;28;20204;-83
2022/07/09 11:20:46;;;;;;;1.33;0.90;;;19.90;97.30;;;;;;4997204;28;20436;-83
2022/07/09 11:23:12;;;;;;;0.87;0.80;;;19.90;97.30;;;;;;4985327;28;20427;-83
2022/07/09 11:25:38;;;;;;;1.13;0.87;;;20.00;97.30;;;;;;4996925;28;20801;-83
2022/07/09 11:28:04;;;;;;;0.97;0.87;;;20.00;97.30;;;;;;5005501;28;20525;-83
2022/07/09 11:30:32;;;;;;;1.00;0.90;;;20.10;97.20;;;;;;4993850;28;20196;-83
2022/07/09 11:32:58;;;;;;;1.03;0.93;;;20.10;96.70;;;;;;4997965;28;20862;-83
2022/07/09 11:35:34;;;;;;;1.10;1.00;;;20.10;96.60;;;;;;5010553;28;20507;-82
2022/07/09 11:38:03;;;;;;;1.00;0.90;;;20.10;96.50;;;;;;4985872;28;20870;-83
2022/07/09 11:40:29;;;;;;;0.90;0.80;;;20.10;96.50;;;;;;4995436;28;20431;-83
2022/07/09 11:42:55;;;;;;;0.90;0.80;;;20.10;96.70;;;;;;4997215;28;20539;-83
2022/07/09 11:45:23;;;;;;;1.17;1.07;;;20.10;97.00;;;;;;4996486;28;20783;-82
2022/07/09 11:47:49;;;;;;;1.53;1.20;;;20.20;96.80;;;;;;4997033;28;20464;-83
2022/07/09 11:50:18;;;;;;;1.00;0.90;;;20.20;96.60;;;;;;4996821;28;20647;-83
2022/07/09 11:52:51;;;;;;;0.90;0.80;;;20.20;96.50;;;;;;4996810;28;20173;-83
2022/07/09 11:55:19;;;;;;;0.97;0.90;;;20.20;96.80;;;;;;4996447;28;20425;-83
2022/07/09 11:57:56;;;;;;;0.90;0.80;;;20.20;97.10;;;;;;5003431;28;20451;-84
2022/07/09 12:00:34;;;;;;;0.70;0.70;;;20.20;96.50;;;;;;4997320;28;20427;-83
2022/07/09 12:03:01;;;;;;;1.40;1.30;;;20.20;95.70;;;;;;4995745;28;20475;-83
2022/07/09 12:05:32;;;;;;;0.70;0.70;;;20.20;95.90;;;;;;4995371;28;20423;-83
2022/07/09 12:07:59;;;;;;;1.07;0.97;;;20.20;95.80;;;;;;4996065;28;20480;-83
2022/07/09 12:10:27;;;;;;;1.20;1.00;;;20.20;95.20;;;;;;4996271;28;20428;-83
2022/07/09 12:12:53;;;;;;;1.00;1.00;;;20.20;95.10;;;;;;4996375;28;20424;-83
2022/07/09 12:15:19;;;;;;;1.40;1.30;;;20.20;94.60;;;;;;4995707;28;20944;-82
2022/07/09 12:17:44;;;;;;;1.00;0.90;;;20.30;95.00;;;;;;4994597;28;20209;-82
2022/07/09 12:20:10;;;;;;;0.80;0.80;;;20.30;95.20;;;;;;4996390;28;20439;-83
2022/07/09 12:22:36;;;;;;;1.20;1.10;;;20.40;94.80;;;;;;4995544;28;20243;-82
2022/07/09 12:25:02;;;;;;;0.90;0.80;;;20.40;94.30;;;;;;4997102;28;20424;-81
2022/07/09 12:27:27;;;;;;;0.87;0.83;;;20.50;94.30;;;;;;4994179;28;20284;-83
2022/07/09 12:29:53;;;;;;;1.43;1.33;;;20.60;94.40;;;;;;5002346;28;20181;-82
2022/07/09 12:32:19;;;;;;;1.00;0.90;;;20.60;94.10;;;;;;4994766;28;20192;-82
2022/07/09 12:34:44;;;;;;;0.87;0.83;;;20.70;94.30;;;;;;4995616;28;20173;-82
2022/07/09 12:37:10;;;;;;;0.90;0.80;;;20.70;94.00;;;;;;4993663;28;20288;-82
2022/07/09 12:39:36;;;;;;;0.87;0.83;;;20.70;94.10;;;;;;4999845;28;20191;-82
2022/07/09 12:42:02;;;;;;;1.33;0.87;;;20.80;93.40;;;;;;4994601;28;20565;-82
2022/07/09 12:44:27;;;;;;;1.00;0.90;;;20.80;93.80;;;;;;4994410;28;20192;-82
2022/07/09 12:46:54;;;;;;;2.80;1.00;;;20.80;93.30;;;;;;4996368;28;20486;-82
2022/07/09 12:49:20;;;;;;;1.00;0.90;;;20.80;93.20;;;;;;5004359;28;20216;-82
2022/07/09 12:51:46;;;;;;;0.80;0.80;;;20.80;92.10;;;;;;5002560;28;20467;-83
2022/07/09 12:54:12;;;;;;;0.90;0.80;;;20.80;92.50;;;;;;4997409;28;20587;-82
2022/07/09 12:56:37;;;;;;;1.67;1.13;;;20.80;92.40;;;;;;4998265;28;20452;-82
2022/07/09 12:59:07;;;;;;;1.37;1.33;;;20.80;92.10;;;;;;5004003;28;20197;-83
2022/07/09 13:01:35;;;;;;;0.90;0.80;;;20.80;92.60;;;;;;5002580;28;20702;-83
2022/07/09 13:04:01;;;;;;;1.13;0.90;;;20.80;92.40;;;;;;5018847;28;20436;-82
2022/07/09 13:06:33;;;;;;;0.70;0.70;;;20.80;92.40;;;;;;5003471;28;20436;-82
2022/07/09 13:09:04;;;;;;;1.10;1.00;;;20.90;92.20;;;;;;5003200;28;20263;-82